Main page
METAR-TAF:

METAR-TAF

Airports :

Hagerstown Regional Airport

Hagerstown, Maryland, United States

latitude: 39-42-21N, longitude: 077-43-48W, elevation: 702 ft

Current weather observation

The report was made 32 minutes ago, at 21:19 UTC
Wind 10 mph from the North
Temperature 52°F
Humidity 62%
Pressure 29.79 in. Hg
Visibility: 10 miles
Scattered clouds at a height of 5000 ft
Broken clouds at a height of 6500 ft
Overcast at a height of 9000 ft

METAR: KHGR 012119Z 01009KT 10SM SCT050 BKN065 OVC090 11/04 A2979 RMK AO2 WSHFT 2059 T01110039

Time: 17:51 (21:51 UTC)


TAF: missing

Weather observations and forecasts of more than 4000 airports (METAR and TAF reports).

The available stations are represented by yellow and red dots on the map.

Hover mouse over dot to see the name of the station.

Then click to see weather observations and forecasts.

To change the map : click on the green buttons with a black cross to zoom in, on the green button with a dash to zoom out, or on the green arrows for adjacent maps.


METAR-TAF: